Mansfield Lahm Regional Airport
KMFD : rendu visible

Aérodrome :











RETROUVEZ-NOUS SUR...

 
LOGIN :

S'inscrire | Disclaimer

   EN    FR    IT 

 









Légende :    VFR   VFR Marginal   IFR   IFR Intensif   IFR Très Intensif
Visi : 
Plafond : 
>= 8 km
>= 3000ft
5 à 8 km
1000 à 3000 ft
1500m à 5 km
500 à 1000 ft
800 à 1500m
200 à 500 ft
< 800m
< 200 ft
Symboles :   Orages  Brouillard  Fortes neiges  Fortes précipitations  Vent > 20 kt






- Altitude de l'aérodrome : 1297 ft


KMFD - Mansfield Lahm Regional

DERNIER METAR :
  • 221952Z 20015KT 10SM CLR 08/M08 A3023 RMK AO2 PK WND 21026/1918 SLP246 T00781083

METARs EXPIRÉS :
  • 221852Z 21015G21KT 10SM CLR 07/M09 A3024 RMK AO2 PK WND 20026/1811 SLP249 T00721089
  • 221752Z 21016G21KT 10SM CLR 06/M09 A3026 RMK AO2 SLP259 T00611089 10061 21044 58020

TAF KMFD
Valide du 22 à 18h jusqu'au 23 à 18h UTC


221730Z 2218/2318 23012G22KT P6SM SKC
FM222200 21007KT P6SM SCT200
FM231600 20012G20KT P6SM SCT050



MET'MAP, la Météo Aéronautique d'un coup d'oeil ! - Copyright ORBIFLY Décembre 2007 - Disclaimer

ORBIFLY MET'MAP TEAM :

Programmation & Développement : Alexandra Zaïnal
Sur une idée originale de : Baudouin d'Aumeries
Assistance à la programmation : Marc-Olivier Méhu
Soutien technique & logistique : Manuel Goepfert

Contact : metmap@orbifly.com




SOURCES & CREDITS :

   NOAA       Earth
Advisory